sensor_id;sensor_type;location;lat;lon;timestamp;temperature;humidity
30473;DHT22;17263;48.160;11.452;2022-07-10T00:01:53;18.20;99.90
30473;DHT22;17263;48.160;11.452;2022-07-10T00:04:19;18.20;99.90
30473;DHT22;17263;48.160;11.452;2022-07-10T00:06:45;18.20;99.90
30473;DHT22;17263;48.160;11.452;2022-07-10T00:09:13;18.20;99.90
30473;DHT22;17263;48.160;11.452;2022-07-10T00:11:40;18.20;99.90
30473;DHT22;17263;48.160;11.452;2022-07-10T00:14:07;18.20;99.90
30473;DHT22;17263;48.160;11.452;2022-07-10T00:16:33;18.20;99.90
30473;DHT22;17263;48.160;11.452;2022-07-10T00:18:59;18.20;99.90
30473;DHT22;17263;48.160;11.452;2022-07-10T00:21:25;18.20;99.90
30473;DHT22;17263;48.160;11.452;2022-07-10T00:23:51;18.20;99.90
30473;DHT22;17263;48.160;11.452;2022-07-10T00:26:17;18.20;99.90
30473;DHT22;17263;48.160;11.452;2022-07-10T00:28:43;18.10;99.90
30473;DHT22;17263;48.160;11.452;2022-07-10T00:31:09;18.10;99.90
30473;DHT22;17263;48.160;11.452;2022-07-10T00:33:37;18.00;99.90
30473;DHT22;17263;48.160;11.452;2022-07-10T00:36:06;17.90;99.90
30473;DHT22;17263;48.160;11.452;2022-07-10T00:38:33;17.90;99.90
30473;DHT22;17263;48.160;11.452;2022-07-10T00:40:59;17.80;99.90
30473;DHT22;17263;48.160;11.452;2022-07-10T00:43:25;17.70;99.90
30473;DHT22;17263;48.160;11.452;2022-07-10T00:45:52;17.60;99.90
30473;DHT22;17263;48.160;11.452;2022-07-10T00:48:18;17.60;99.90
30473;DHT22;17263;48.160;11.452;2022-07-10T00:50:46;17.40;99.90
30473;DHT22;17263;48.160;11.452;2022-07-10T00:53:13;17.30;99.90
30473;DHT22;17263;48.160;11.452;2022-07-10T00:55:40;17.20;99.90
30473;DHT22;17263;48.160;11.452;2022-07-10T00:58:08;17.20;99.90
30473;DHT22;17263;48.160;11.452;2022-07-10T01:00:36;17.20;99.90
30473;DHT22;17263;48.160;11.452;2022-07-10T01:03:05;17.10;99.90
30473;DHT22;17263;48.160;11.452;2022-07-10T01:05:31;17.10;99.90
30473;DHT22;17263;48.160;11.452;2022-07-10T01:07:57;17.10;99.90
30473;DHT22;17263;48.160;11.452;2022-07-10T01:10:24;17.00;99.90
30473;DHT22;17263;48.160;11.452;2022-07-10T01:12:50;17.00;99.90
30473;DHT22;17263;48.160;11.452;2022-07-10T01:15:17;17.00;99.90
30473;DHT22;17263;48.160;11.452;2022-07-10T01:17:43;16.90;99.90
30473;DHT22;17263;48.160;11.452;2022-07-10T01:20:09;16.80;99.90
30473;DHT22;17263;48.160;11.452;2022-07-10T01:22:36;16.80;99.90
30473;DHT22;17263;48.160;11.452;2022-07-10T01:25:03;16.70;99.90
30473;DHT22;17263;48.160;11.452;2022-07-10T01:27:29;16.70;99.90
30473;DHT22;17263;48.160;11.452;2022-07-10T01:29:55;16.60;99.90
30473;DHT22;17263;48.160;11.452;2022-07-10T01:32:21;16.60;99.90
30473;DHT22;17263;48.160;11.452;2022-07-10T01:34:47;16.60;99.90
30473;DHT22;17263;48.160;11.452;2022-07-10T01:37:13;16.50;99.90
30473;DHT22;17263;48.160;11.452;2022-07-10T01:39:39;16.50;99.90
30473;DHT22;17263;48.160;11.452;2022-07-10T01:42:05;16.50;99.90
30473;DHT22;17263;48.160;11.452;2022-07-10T01:44:31;16.50;99.90
30473;DHT22;17263;48.160;11.452;2022-07-10T01:46:57;16.50;99.90
30473;DHT22;17263;48.160;11.452;2022-07-10T01:49:23;16.40;99.90
30473;DHT22;17263;48.160;11.452;2022-07-10T01:51:49;16.40;99.90
30473;DHT22;17263;48.160;11.452;2022-07-10T01:54:15;16.40;99.90
30473;DHT22;17263;48.160;11.452;2022-07-10T01:56:41;16.40;99.90
30473;DHT22;17263;48.160;11.452;2022-07-10T01:59:07;16.40;99.90
30473;DHT22;17263;48.160;11.452;2022-07-10T02:01:33;16.30;99.90
30473;DHT22;17263;48.160;11.452;2022-07-10T02:03:59;16.30;99.90
30473;DHT22;17263;48.160;11.452;2022-07-10T02:06:44;16.30;99.90
30473;DHT22;17263;48.160;11.452;2022-07-10T02:09:10;16.30;99.90
30473;DHT22;17263;48.160;11.452;2022-07-10T02:11:37;16.30;99.90
30473;DHT22;17263;48.160;11.452;2022-07-10T02:14:03;16.30;99.90
30473;DHT22;17263;48.160;11.452;2022-07-10T02:16:29;16.30;99.90
30473;DHT22;17263;48.160;11.452;2022-07-10T02:18:55;16.30;99.90
30473;DHT22;17263;48.160;11.452;2022-07-10T02:21:21;16.30;99.90
30473;DHT22;17263;48.160;11.452;2022-07-10T02:23:47;16.30;99.90
30473;DHT22;17263;48.160;11.452;2022-07-10T02:26:13;16.30;99.90
30473;DHT22;17263;48.160;11.452;2022-07-10T02:28:39;16.20;99.90
30473;DHT22;17263;48.160;11.452;2022-07-10T02:31:05;16.20;99.90
30473;DHT22;17263;48.160;11.452;2022-07-10T02:33:31;16.20;99.90
30473;DHT22;17263;48.160;11.452;2022-07-10T02:35:57;16.20;99.90
30473;DHT22;17263;48.160;11.452;2022-07-10T02:38:23;16.20;99.90
30473;DHT22;17263;48.160;11.452;2022-07-10T02:40:49;16.20;99.90
30473;DHT22;17263;48.160;11.452;2022-07-10T02:43:15;16.10;99.90
30473;DHT22;17263;48.160;11.452;2022-07-10T02:45:41;16.10;99.90
30473;DHT22;17263;48.160;11.452;2022-07-10T02:48:07;16.10;99.90
30473;DHT22;17263;48.160;11.452;2022-07-10T02:50:33;16.10;99.90
30473;DHT22;17263;48.160;11.452;2022-07-10T02:52:59;16.10;99.90
30473;DHT22;17263;48.160;11.452;2022-07-10T02:55:25;16.10;99.90
30473;DHT22;17263;48.160;11.452;2022-07-10T02:57:51;16.10;99.90
30473;DHT22;17263;48.160;11.452;2022-07-10T03:00:17;16.10;99.90
30473;DHT22;17263;48.160;11.452;2022-07-10T03:02:43;16.00;99.90
30473;DHT22;17263;48.160;11.452;2022-07-10T03:05:09;16.00;99.90
30473;DHT22;17263;48.160;11.452;2022-07-10T03:07:35;16.00;99.90
30473;DHT22;17263;48.160;11.452;2022-07-10T03:10:02;15.90;99.90
30473;DHT22;17263;48.160;11.452;2022-07-10T03:12:28;15.90;99.90
30473;DHT22;17263;48.160;11.452;2022-07-10T03:14:54;15.80;99.90
30473;DHT22;17263;48.160;11.452;2022-07-10T03:17:20;15.80;99.90
30473;DHT22;17263;48.160;11.452;2022-07-10T03:19:46;15.70;99.90
30473;DHT22;17263;48.160;11.452;2022-07-10T03:22:12;15.70;99.90
30473;DHT22;17263;48.160;11.452;2022-07-10T03:24:38;15.60;99.90
30473;DHT22;17263;48.160;11.452;2022-07-10T03:27:04;15.60;99.90
30473;DHT22;17263;48.160;11.452;2022-07-10T03:29:31;15.60;99.90
30473;DHT22;17263;48.160;11.452;2022-07-10T03:31:58;15.50;99.90
30473;DHT22;17263;48.160;11.452;2022-07-10T03:34:24;15.50;99.90
30473;DHT22;17263;48.160;11.452;2022-07-10T03:36:50;15.50;99.90
30473;DHT22;17263;48.160;11.452;2022-07-10T03:39:17;15.50;99.90
30473;DHT22;17263;48.160;11.452;2022-07-10T03:41:43;15.50;99.90
30473;DHT22;17263;48.160;11.452;2022-07-10T03:44:09;15.50;99.90
30473;DHT22;17263;48.160;11.452;2022-07-10T03:46:35;15.40;99.90
30473;DHT22;17263;48.160;11.452;2022-07-10T03:49:01;15.40;99.90
30473;DHT22;17263;48.160;11.452;2022-07-10T03:51:27;15.40;99.90
30473;DHT22;17263;48.160;11.452;2022-07-10T03:53:53;15.40;99.90
30473;DHT22;17263;48.160;11.452;2022-07-10T03:56:19;15.50;99.90
30473;DHT22;17263;48.160;11.452;2022-07-10T03:59:04;15.40;99.90
30473;DHT22;17263;48.160;11.452;2022-07-10T04:01:30;15.50;99.90
30473;DHT22;17263;48.160;11.452;2022-07-10T04:03:56;15.50;99.90
30473;DHT22;17263;48.160;11.452;2022-07-10T04:06:22;15.60;99.90
30473;DHT22;17263;48.160;11.452;2022-07-10T04:08:48;15.70;99.90
30473;DHT22;17263;48.160;11.452;2022-07-10T04:11:14;15.70;99.90
30473;DHT22;17263;48.160;11.452;2022-07-10T04:13:40;15.70;99.90
30473;DHT22;17263;48.160;11.452;2022-07-10T04:16:06;15.80;99.90
30473;DHT22;17263;48.160;11.452;2022-07-10T04:18:35;15.80;99.90
30473;DHT22;17263;48.160;11.452;2022-07-10T04:21:01;15.90;99.90
30473;DHT22;17263;48.160;11.452;2022-07-10T04:23:27;15.90;99.90
30473;DHT22;17263;48.160;11.452;2022-07-10T04:25:53;16.00;99.90
30473;DHT22;17263;48.160;11.452;2022-07-10T04:28:19;16.00;99.90
30473;DHT22;17263;48.160;11.452;2022-07-10T04:30:45;16.10;99.90
30473;DHT22;17263;48.160;11.452;2022-07-10T04:33:12;16.20;99.90
30473;DHT22;17263;48.160;11.452;2022-07-10T04:35:38;16.30;99.90
30473;DHT22;17263;48.160;11.452;2022-07-10T04:38:04;16.30;99.90
30473;DHT22;17263;48.160;11.452;2022-07-10T04:40:30;16.20;99.90
30473;DHT22;17263;48.160;11.452;2022-07-10T04:42:56;16.20;99.90
30473;DHT22;17263;48.160;11.452;2022-07-10T04:45:22;16.30;99.90
30473;DHT22;17263;48.160;11.452;2022-07-10T04:47:48;16.20;99.90
30473;DHT22;17263;48.160;11.452;2022-07-10T04:50:15;16.20;99.90
30473;DHT22;17263;48.160;11.452;2022-07-10T04:52:41;16.20;99.90
30473;DHT22;17263;48.160;11.452;2022-07-10T04:55:07;16.30;99.90
30473;DHT22;17263;48.160;11.452;2022-07-10T04:57:33;16.20;99.90
30473;DHT22;17263;48.160;11.452;2022-07-10T04:59:59;16.30;99.90
30473;DHT22;17263;48.160;11.452;2022-07-10T05:02:25;16.30;99.90
30473;DHT22;17263;48.160;11.452;2022-07-10T05:04:51;16.30;99.90
30473;DHT22;17263;48.160;11.452;2022-07-10T05:07:18;16.30;99.90
30473;DHT22;17263;48.160;11.452;2022-07-10T05:09:44;16.30;99.90
30473;DHT22;17263;48.160;11.452;2022-07-10T05:12:10;16.30;99.90
30473;DHT22;17263;48.160;11.452;2022-07-10T05:14:36;16.30;99.90
30473;DHT22;17263;48.160;11.452;2022-07-10T05:17:02;16.30;99.90
30473;DHT22;17263;48.160;11.452;2022-07-10T05:19:28;16.40;99.90
30473;DHT22;17263;48.160;11.452;2022-07-10T05:21:54;16.30;99.90
30473;DHT22;17263;48.160;11.452;2022-07-10T05:24:21;16.30;99.90
30473;DHT22;17263;48.160;11.452;2022-07-10T05:26:47;16.20;99.90
30473;DHT22;17263;48.160;11.452;2022-07-10T05:29:13;16.30;99.90
30473;DHT22;17263;48.160;11.452;2022-07-10T05:31:39;16.30;99.90
30473;DHT22;17263;48.160;11.452;2022-07-10T05:34:05;16.30;99.90
30473;DHT22;17263;48.160;11.452;2022-07-10T05:36:31;16.30;99.90
30473;DHT22;17263;48.160;11.452;2022-07-10T05:38:57;16.20;99.90
30473;DHT22;17263;48.160;11.452;2022-07-10T05:41:23;16.20;99.90
30473;DHT22;17263;48.160;11.452;2022-07-10T05:43:49;16.20;99.90
30473;DHT22;17263;48.160;11.452;2022-07-10T05:46:15;16.30;99.90
30473;DHT22;17263;48.160;11.452;2022-07-10T05:48:41;16.30;99.90
30473;DHT22;17263;48.160;11.452;2022-07-10T05:51:07;16.50;99.90
30473;DHT22;17263;48.160;11.452;2022-07-10T05:53:33;16.60;99.90
30473;DHT22;17263;48.160;11.452;2022-07-10T05:56:00;16.70;99.90
30473;DHT22;17263;48.160;11.452;2022-07-10T05:58:27;16.80;99.90
30473;DHT22;17263;48.160;11.452;2022-07-10T06:00:53;17.00;99.90
30473;DHT22;17263;48.160;11.452;2022-07-10T06:03:19;17.20;99.90
30473;DHT22;17263;48.160;11.452;2022-07-10T06:05:47;17.20;99.90
30473;DHT22;17263;48.160;11.452;2022-07-10T06:08:13;17.20;99.90
30473;DHT22;17263;48.160;11.452;2022-07-10T06:10:39;17.10;99.90
30473;DHT22;17263;48.160;11.452;2022-07-10T06:13:10;16.90;99.90
30473;DHT22;17263;48.160;11.452;2022-07-10T06:15:37;16.80;99.90
30473;DHT22;17263;48.160;11.452;2022-07-10T06:18:03;16.80;99.90
30473;DHT22;17263;48.160;11.452;2022-07-10T06:20:30;16.70;99.90
30473;DHT22;17263;48.160;11.452;2022-07-10T06:22:57;16.70;99.90
30473;DHT22;17263;48.160;11.452;2022-07-10T06:25:23;16.70;99.90
30473;DHT22;17263;48.160;11.452;2022-07-10T06:27:49;16.70;99.90
30473;DHT22;17263;48.160;11.452;2022-07-10T06:30:15;16.70;99.90
30473;DHT22;17263;48.160;11.452;2022-07-10T06:32:42;16.60;99.90
30473;DHT22;17263;48.160;11.452;2022-07-10T06:35:08;16.60;99.90
30473;DHT22;17263;48.160;11.452;2022-07-10T06:40:00;16.60;99.90
30473;DHT22;17263;48.160;11.452;2022-07-10T06:42:26;16.70;99.90
30473;DHT22;17263;48.160;11.452;2022-07-10T06:44:52;16.80;99.90
30473;DHT22;17263;48.160;11.452;2022-07-10T06:47:19;17.00;99.90
30473;DHT22;17263;48.160;11.452;2022-07-10T06:50:08;17.20;99.90
30473;DHT22;17263;48.160;11.452;2022-07-10T06:52:34;17.30;99.90
30473;DHT22;17263;48.160;11.452;2022-07-10T06:55:02;17.30;99.90
30473;DHT22;17263;48.160;11.452;2022-07-10T06:57:28;17.40;99.90
30473;DHT22;17263;48.160;11.452;2022-07-10T06:59:54;17.40;99.90
30473;DHT22;17263;48.160;11.452;2022-07-10T07:02:21;17.50;99.90
30473;DHT22;17263;48.160;11.452;2022-07-10T07:04:47;17.50;99.90
30473;DHT22;17263;48.160;11.452;2022-07-10T07:07:14;17.60;99.90
30473;DHT22;17263;48.160;11.452;2022-07-10T07:09:41;17.70;99.90
30473;DHT22;17263;48.160;11.452;2022-07-10T07:12:08;17.70;99.90
30473;DHT22;17263;48.160;11.452;2022-07-10T07:14:35;17.70;99.90
30473;DHT22;17263;48.160;11.452;2022-07-10T07:17:01;17.80;99.90
30473;DHT22;17263;48.160;11.452;2022-07-10T07:19:33;17.60;99.90
30473;DHT22;17263;48.160;11.452;2022-07-10T07:22:20;17.60;99.90
30473;DHT22;17263;48.160;11.452;2022-07-10T07:25:06;17.50;99.90
30473;DHT22;17263;48.160;11.452;2022-07-10T07:27:36;17.50;99.90
30473;DHT22;17263;48.160;11.452;2022-07-10T07:30:13;17.50;99.90
30473;DHT22;17263;48.160;11.452;2022-07-10T07:32:43;17.50;99.90
30473;DHT22;17263;48.160;11.452;2022-07-10T07:35:11;17.60;99.90
30473;DHT22;17263;48.160;11.452;2022-07-10T07:37:43;17.70;99.90
30473;DHT22;17263;48.160;11.452;2022-07-10T07:40:14;17.70;99.90
30473;DHT22;17263;48.160;11.452;2022-07-10T07:42:40;17.70;99.90
30473;DHT22;17263;48.160;11.452;2022-07-10T07:45:07;17.70;99.90
30473;DHT22;17263;48.160;11.452;2022-07-10T07:47:54;17.60;99.90
30473;DHT22;17263;48.160;11.452;2022-07-10T07:50:26;17.70;99.90
30473;DHT22;17263;48.160;11.452;2022-07-10T07:52:53;17.90;99.90
30473;DHT22;17263;48.160;11.452;2022-07-10T07:55:20;18.20;99.90
30473;DHT22;17263;48.160;11.452;2022-07-10T07:57:47;18.50;99.90
30473;DHT22;17263;48.160;11.452;2022-07-10T08:00:15;18.70;99.90
30473;DHT22;17263;48.160;11.452;2022-07-10T08:02:44;18.70;99.90
30473;DHT22;17263;48.160;11.452;2022-07-10T08:05:10;18.60;99.90
30473;DHT22;17263;48.160;11.452;2022-07-10T08:07:39;19.00;99.90
30473;DHT22;17263;48.160;11.452;2022-07-10T08:10:08;20.10;99.90
30473;DHT22;17263;48.160;11.452;2022-07-10T08:12:34;20.80;99.90
30473;DHT22;17263;48.160;11.452;2022-07-10T08:15:00;21.10;99.90
30473;DHT22;17263;48.160;11.452;2022-07-10T08:17:26;21.40;99.90
30473;DHT22;17263;48.160;11.452;2022-07-10T08:19:53;21.80;99.90
30473;DHT22;17263;48.160;11.452;2022-07-10T08:22:19;22.50;99.90
30473;DHT22;17263;48.160;11.452;2022-07-10T08:24:45;22.60;99.90
30473;DHT22;17263;48.160;11.452;2022-07-10T08:27:11;22.30;99.90
30473;DHT22;17263;48.160;11.452;2022-07-10T08:29:38;22.20;99.90
30473;DHT22;17263;48.160;11.452;2022-07-10T08:32:04;21.80;99.90
30473;DHT22;17263;48.160;11.452;2022-07-10T08:34:31;21.40;99.90
30473;DHT22;17263;48.160;11.452;2022-07-10T08:36:59;20.90;99.90
30473;DHT22;17263;48.160;11.452;2022-07-10T08:39:25;20.80;99.90
30473;DHT22;17263;48.160;11.452;2022-07-10T08:41:51;21.30;99.90
30473;DHT22;17263;48.160;11.452;2022-07-10T08:44:17;22.10;99.90
30473;DHT22;17263;48.160;11.452;2022-07-10T08:46:44;22.50;99.90
30473;DHT22;17263;48.160;11.452;2022-07-10T08:49:11;22.40;99.90
30473;DHT22;17263;48.160;11.452;2022-07-10T08:51:52;22.10;99.90
30473;DHT22;17263;48.160;11.452;2022-07-10T08:54:20;21.70;99.90
30473;DHT22;17263;48.160;11.452;2022-07-10T08:56:47;21.50;99.90
30473;DHT22;17263;48.160;11.452;2022-07-10T08:59:14;21.50;99.90
30473;DHT22;17263;48.160;11.452;2022-07-10T09:01:40;21.70;99.90
30473;DHT22;17263;48.160;11.452;2022-07-10T09:04:06;22.30;99.90
30473;DHT22;17263;48.160;11.452;2022-07-10T09:06:32;23.00;99.90
30473;DHT22;17263;48.160;11.452;2022-07-10T09:09:00;23.70;99.90
30473;DHT22;17263;48.160;11.452;2022-07-10T09:11:27;24.20;99.70
30473;DHT22;17263;48.160;11.452;2022-07-10T09:13:57;24.10;98.30
30473;DHT22;17263;48.160;11.452;2022-07-10T09:16:25;23.70;97.60
30473;DHT22;17263;48.160;11.452;2022-07-10T09:18:52;23.40;98.10
30473;DHT22;17263;48.160;11.452;2022-07-10T09:21:18;23.10;97.80
30473;DHT22;17263;48.160;11.452;2022-07-10T09:23:44;23.00;97.90
30473;DHT22;17263;48.160;11.452;2022-07-10T09:26:10;22.50;97.50
30473;DHT22;17263;48.160;11.452;2022-07-10T09:28:36;22.10;98.40
30473;DHT22;17263;48.160;11.452;2022-07-10T09:31:02;22.10;98.90
30473;DHT22;17263;48.160;11.452;2022-07-10T09:33:29;22.60;98.10
30473;DHT22;17263;48.160;11.452;2022-07-10T09:41:14;23.90;95.30
30473;DHT22;17263;48.160;11.452;2022-07-10T09:43:44;24.20;95.50
30473;DHT22;17263;48.160;11.452;2022-07-10T09:46:11;24.50;94.20
30473;DHT22;17263;48.160;11.452;2022-07-10T09:48:37;24.20;92.90
30473;DHT22;17263;48.160;11.452;2022-07-10T09:51:05;23.70;92.50
30473;DHT22;17263;48.160;11.452;2022-07-10T09:53:38;23.20;92.40
30473;DHT22;17263;48.160;11.452;2022-07-10T09:56:08;22.80;93.90
30473;DHT22;17263;48.160;11.452;2022-07-10T09:58:36;22.90;94.20
30473;DHT22;17263;48.160;11.452;2022-07-10T10:01:06;23.10;93.50
30473;DHT22;17263;48.160;11.452;2022-07-10T10:03:35;23.50;93.10
30473;DHT22;17263;48.160;11.452;2022-07-10T10:06:11;23.90;92.90
30473;DHT22;17263;48.160;11.452;2022-07-10T10:11:24;24.50;90.70
30473;DHT22;17263;48.160;11.452;2022-07-10T10:13:51;24.40;90.20
30473;DHT22;17263;48.160;11.452;2022-07-10T10:16:22;24.20;89.20
30473;DHT22;17263;48.160;11.452;2022-07-10T10:18:50;23.90;87.80
30473;DHT22;17263;48.160;11.452;2022-07-10T10:21:36;23.90;86.90
30473;DHT22;17263;48.160;11.452;2022-07-10T10:24:02;24.20;88.70
30473;DHT22;17263;48.160;11.452;2022-07-10T10:26:29;24.40;85.60
30473;DHT22;17263;48.160;11.452;2022-07-10T10:28:57;24.00;85.40
30473;DHT22;17263;48.160;11.452;2022-07-10T10:31:24;23.30;85.70
30473;DHT22;17263;48.160;11.452;2022-07-10T10:33:56;22.90;90.00
30473;DHT22;17263;48.160;11.452;2022-07-10T10:39:20;23.10;90.60
30473;DHT22;17263;48.160;11.452;2022-07-10T10:41:52;23.40;87.90
30473;DHT22;17263;48.160;11.452;2022-07-10T10:44:19;23.20;87.20
30473;DHT22;17263;48.160;11.452;2022-07-10T10:49:21;22.50;88.60
30473;DHT22;17263;48.160;11.452;2022-07-10T10:52:08;22.10;90.00
30473;DHT22;17263;48.160;11.452;2022-07-10T10:57:35;21.90;91.00
30473;DHT22;17263;48.160;11.452;2022-07-10T11:00:03;21.80;90.20
30473;DHT22;17263;48.160;11.452;2022-07-10T11:02:35;21.80;91.00
30473;DHT22;17263;48.160;11.452;2022-07-10T11:10:35;21.60;91.60
30473;DHT22;17263;48.160;11.452;2022-07-10T11:13:04;21.60;91.00
30473;DHT22;17263;48.160;11.452;2022-07-10T11:15:31;21.60;90.80
30473;DHT22;17263;48.160;11.452;2022-07-10T11:18:06;21.70;91.00
30473;DHT22;17263;48.160;11.452;2022-07-10T11:20:34;21.60;91.30
30473;DHT22;17263;48.160;11.452;2022-07-10T11:26:04;21.30;90.20
30473;DHT22;17263;48.160;11.452;2022-07-10T11:28:51;21.10;90.70
30473;DHT22;17263;48.160;11.452;2022-07-10T11:31:18;21.10;90.70
30473;DHT22;17263;48.160;11.452;2022-07-10T11:33:46;21.10;91.70
30473;DHT22;17263;48.160;11.452;2022-07-10T11:36:16;21.20;92.10
30473;DHT22;17263;48.160;11.452;2022-07-10T11:38:43;21.50;91.90
30473;DHT22;17263;48.160;11.452;2022-07-10T11:41:19;21.50;91.10
30473;DHT22;17263;48.160;11.452;2022-07-10T11:44:01;21.50;91.40
30473;DHT22;17263;48.160;11.452;2022-07-10T11:46:34;21.60;91.80
30473;DHT22;17263;48.160;11.452;2022-07-10T11:49:05;21.70;90.90
30473;DHT22;17263;48.160;11.452;2022-07-10T11:51:33;21.70;90.40
30473;DHT22;17263;48.160;11.452;2022-07-10T11:54:11;21.70;90.30
30473;DHT22;17263;48.160;11.452;2022-07-10T11:56:41;21.70;90.10
30473;DHT22;17263;48.160;11.452;2022-07-10T11:59:11;21.60;90.70
30473;DHT22;17263;48.160;11.452;2022-07-10T12:01:46;21.60;90.90
30473;DHT22;17263;48.160;11.452;2022-07-10T12:04:14;21.80;90.10
30473;DHT22;17263;48.160;11.452;2022-07-10T12:06:42;21.70;89.50
30473;DHT22;17263;48.160;11.452;2022-07-10T12:09:12;21.80;89.00
30473;DHT22;17263;48.160;11.452;2022-07-10T12:11:39;21.70;90.20
30473;DHT22;17263;48.160;11.452;2022-07-10T12:14:14;21.50;90.00
30473;DHT22;17263;48.160;11.452;2022-07-10T12:16:43;21.40;90.30
30473;DHT22;17263;48.160;11.452;2022-07-10T12:19:12;21.50;89.40
30473;DHT22;17263;48.160;11.452;2022-07-10T12:21:43;21.60;90.40
30473;DHT22;17263;48.160;11.452;2022-07-10T12:24:10;21.80;89.60
30473;DHT22;17263;48.160;11.452;2022-07-10T12:26:39;22.10;89.00
30473;DHT22;17263;48.160;11.452;2022-07-10T12:29:05;22.20;88.40
30473;DHT22;17263;48.160;11.452;2022-07-10T12:31:33;22.20;86.70
30473;DHT22;17263;48.160;11.452;2022-07-10T12:34:01;22.20;86.90
30473;DHT22;17263;48.160;11.452;2022-07-10T12:36:42;22.20;86.50
30473;DHT22;17263;48.160;11.452;2022-07-10T12:39:09;22.10;85.90
30473;DHT22;17263;48.160;11.452;2022-07-10T12:41:53;22.00;85.90
30473;DHT22;17263;48.160;11.452;2022-07-10T12:44:33;21.90;86.90
30473;DHT22;17263;48.160;11.452;2022-07-10T12:47:01;21.90;85.30
30473;DHT22;17263;48.160;11.452;2022-07-10T12:49:28;22.00;85.10
30473;DHT22;17263;48.160;11.452;2022-07-10T12:51:54;22.00;86.50
30473;DHT22;17263;48.160;11.452;2022-07-10T12:54:36;22.00;86.50
30473;DHT22;17263;48.160;11.452;2022-07-10T12:57:06;22.10;85.40
30473;DHT22;17263;48.160;11.452;2022-07-10T12:59:36;22.00;84.60
30473;DHT22;17263;48.160;11.452;2022-07-10T13:02:19;21.90;84.90
30473;DHT22;17263;48.160;11.452;2022-07-10T13:04:55;21.80;85.10
30473;DHT22;17263;48.160;11.452;2022-07-10T13:07:32;21.70;86.40
30473;DHT22;17263;48.160;11.452;2022-07-10T13:10:03;21.70;85.90
30473;DHT22;17263;48.160;11.452;2022-07-10T13:12:30;21.60;84.30
30473;DHT22;17263;48.160;11.452;2022-07-10T13:14:56;21.50;83.60
30473;DHT22;17263;48.160;11.452;2022-07-10T13:17:22;21.40;84.70
30473;DHT22;17263;48.160;11.452;2022-07-10T13:19:50;21.40;84.20
30473;DHT22;17263;48.160;11.452;2022-07-10T13:22:17;21.30;83.90
30473;DHT22;17263;48.160;11.452;2022-07-10T13:24:43;21.30;84.40
30473;DHT22;17263;48.160;11.452;2022-07-10T13:27:09;21.20;84.20
30473;DHT22;17263;48.160;11.452;2022-07-10T13:29:36;21.20;84.50
30473;DHT22;17263;48.160;11.452;2022-07-10T13:32:02;21.20;84.20
30473;DHT22;17263;48.160;11.452;2022-07-10T13:34:28;21.10;83.80
30473;DHT22;17263;48.160;11.452;2022-07-10T13:36:55;21.10;83.20
30473;DHT22;17263;48.160;11.452;2022-07-10T13:39:22;21.10;84.10
30473;DHT22;17263;48.160;11.452;2022-07-10T13:41:48;21.10;83.60
30473;DHT22;17263;48.160;11.452;2022-07-10T13:44:14;21.20;83.80
30473;DHT22;17263;48.160;11.452;2022-07-10T13:46:40;21.20;82.40
30473;DHT22;17263;48.160;11.452;2022-07-10T13:49:06;21.10;83.10
30473;DHT22;17263;48.160;11.452;2022-07-10T13:51:32;21.00;83.40
30473;DHT22;17263;48.160;11.452;2022-07-10T13:53:58;21.10;83.40
30473;DHT22;17263;48.160;11.452;2022-07-10T13:56:24;21.20;83.50
30473;DHT22;17263;48.160;11.452;2022-07-10T13:58:51;21.20;83.40
30473;DHT22;17263;48.160;11.452;2022-07-10T14:01:18;21.20;83.30
30473;DHT22;17263;48.160;11.452;2022-07-10T14:03:44;21.20;83.80
30473;DHT22;17263;48.160;11.452;2022-07-10T14:06:10;21.20;82.10
30473;DHT22;17263;48.160;11.452;2022-07-10T14:08:36;21.20;81.60
30473;DHT22;17263;48.160;11.452;2022-07-10T14:11:02;21.20;82.80
30473;DHT22;17263;48.160;11.452;2022-07-10T14:13:28;21.00;80.90
30473;DHT22;17263;48.160;11.452;2022-07-10T14:15:55;21.00;82.80
30473;DHT22;17263;48.160;11.452;2022-07-10T14:18:21;21.00;82.10
30473;DHT22;17263;48.160;11.452;2022-07-10T14:21:08;21.00;83.30
30473;DHT22;17263;48.160;11.452;2022-07-10T14:23:39;21.10;83.30
30473;DHT22;17263;48.160;11.452;2022-07-10T14:26:07;21.20;83.10
30473;DHT22;17263;48.160;11.452;2022-07-10T14:28:34;21.00;80.00
30473;DHT22;17263;48.160;11.452;2022-07-10T14:31:02;21.00;81.40
30473;DHT22;17263;48.160;11.452;2022-07-10T14:33:33;21.00;81.90
30473;DHT22;17263;48.160;11.452;2022-07-10T14:35:59;21.00;80.50
30473;DHT22;17263;48.160;11.452;2022-07-10T14:38:26;21.00;80.90
30473;DHT22;17263;48.160;11.452;2022-07-10T14:40:52;21.00;79.80
30473;DHT22;17263;48.160;11.452;2022-07-10T14:43:19;21.00;79.70
30473;DHT22;17263;48.160;11.452;2022-07-10T14:45:46;21.00;80.10
30473;DHT22;17263;48.160;11.452;2022-07-10T14:48:12;20.90;79.80
30473;DHT22;17263;48.160;11.452;2022-07-10T14:50:39;20.90;79.20
30473;DHT22;17263;48.160;11.452;2022-07-10T14:53:08;20.90;79.00
30473;DHT22;17263;48.160;11.452;2022-07-10T14:55:35;20.80;78.80
30473;DHT22;17263;48.160;11.452;2022-07-10T14:58:02;20.80;79.20
30473;DHT22;17263;48.160;11.452;2022-07-10T15:00:28;20.80;79.20
30473;DHT22;17263;48.160;11.452;2022-07-10T15:02:54;20.80;79.20
30473;DHT22;17263;48.160;11.452;2022-07-10T15:05:20;20.80;78.70
30473;DHT22;17263;48.160;11.452;2022-07-10T15:07:46;20.80;80.10
30473;DHT22;17263;48.160;11.452;2022-07-10T15:10:12;20.90;79.30
30473;DHT22;17263;48.160;11.452;2022-07-10T15:12:38;20.80;78.30
30473;DHT22;17263;48.160;11.452;2022-07-10T15:15:05;20.70;78.40
30473;DHT22;17263;48.160;11.452;2022-07-10T15:17:34;20.80;78.90
30473;DHT22;17263;48.160;11.452;2022-07-10T15:20:01;20.80;78.60
30473;DHT22;17263;48.160;11.452;2022-07-10T15:22:27;20.70;78.00
30473;DHT22;17263;48.160;11.452;2022-07-10T15:24:53;20.70;80.30
30473;DHT22;17263;48.160;11.452;2022-07-10T15:27:20;20.80;79.00
30473;DHT22;17263;48.160;11.452;2022-07-10T15:29:46;20.70;78.50
30473;DHT22;17263;48.160;11.452;2022-07-10T15:32:12;20.80;79.00
30473;DHT22;17263;48.160;11.452;2022-07-10T15:34:38;20.70;78.60
30473;DHT22;17263;48.160;11.452;2022-07-10T15:37:04;20.80;79.30
30473;DHT22;17263;48.160;11.452;2022-07-10T15:39:31;20.70;79.10
30473;DHT22;17263;48.160;11.452;2022-07-10T15:42:11;20.80;78.20
30473;DHT22;17263;48.160;11.452;2022-07-10T15:44:37;20.70;75.70
30473;DHT22;17263;48.160;11.452;2022-07-10T15:47:04;20.70;76.50